Beauly, United Kingdom
Current Conditions -  °F | °C
As of 7:20 PM on Thursday 27 Nov 2014 (Local Time) from EGPE Reporting Station
Few Clouds Few Clouds  
Wind Chill: 39°   Ceiling: Unl
Heat Index: 43°   Visibility: 6mi
Dew Point: 43°   Wind: 6mph
Humidity: 100%   Direction: 50°NE
Pressure: 29.62"   Gusts: NA
Location:  57.48°N, 4.46°W
Report Text: EGPE 271920Z 05005KT 9000 FEW006 06/06 Q1003
Loading
Personal Weather Stations






























Interactive Weather Map New forecast layout! Learn more

10-Day Weather Forecast

Advertisements
Track Severe Weather on mobile